createdAt,value
2023-04-16T00:02:15.033Z,96.39
2023-04-16T00:04:46.422Z,96.53
2023-04-16T00:07:17.764Z,96.20
2023-04-16T00:09:49.025Z,95.80
2023-04-16T00:12:20.345Z,96.00
2023-04-16T00:14:51.654Z,96.37
2023-04-16T00:17:23.025Z,96.35
2023-04-16T00:19:54.326Z,96.17
2023-04-16T00:22:25.633Z,96.11
2023-04-16T00:24:56.954Z,95.74
2023-04-16T00:27:28.289Z,95.84
2023-04-16T00:29:59.688Z,96.28
2023-04-16T00:32:31.030Z,96.66
2023-04-16T00:35:02.359Z,96.20
2023-04-16T00:37:33.622Z,96.41
2023-04-16T00:40:05.487Z,96.00
2023-04-16T00:42:37.999Z,96.18
2023-04-16T00:45:10.280Z,95.70
2023-04-16T00:47:41.586Z,96.46
2023-04-16T00:50:12.918Z,96.23
2023-04-16T00:52:47.333Z,95.81
2023-04-16T00:55:19.825Z,95.86
2023-04-16T00:57:51.144Z,96.17
2023-04-16T01:00:22.485Z,96.38
2023-04-16T01:02:54.751Z,96.23
2023-04-16T01:05:26.504Z,95.90
2023-04-16T01:08:01.137Z,95.84
2023-04-16T01:10:32.424Z,96.21
2023-04-16T01:13:03.681Z,96.21
2023-04-16T01:15:35.238Z,95.94
2023-04-16T01:18:16.640Z,96.04
2023-04-16T01:20:49.116Z,95.79
2023-04-16T01:23:20.571Z,96.35
2023-04-16T01:25:51.893Z,96.07
2023-04-16T01:28:23.320Z,95.97
2023-04-16T01:30:54.774Z,95.93
2023-04-16T01:33:26.172Z,96.39
2023-04-16T01:35:57.446Z,95.97
2023-04-16T01:38:28.707Z,95.76
2023-04-16T01:41:00.209Z,96.22
2023-04-16T01:43:31.486Z,96.31
2023-04-16T01:46:23.503Z,95.97
2023-04-16T01:48:55.326Z,96.29
2023-04-16T01:51:27.356Z,96.20
2023-04-16T01:53:58.888Z,96.59
2023-04-16T01:56:30.351Z,96.14
2023-04-16T01:59:01.729Z,96.61
2023-04-16T02:01:33.057Z,96.27
2023-04-16T02:04:05.259Z,96.45
2023-04-16T02:06:36.570Z,96.87
2023-04-16T02:09:08.072Z,96.44
2023-04-16T02:11:39.564Z,96.67
2023-04-16T02:14:10.910Z,96.62
2023-04-16T02:16:42.414Z,97.00
2023-04-16T02:19:13.724Z,96.66
2023-04-16T02:21:44.981Z,96.62
2023-04-16T02:24:16.489Z,96.94
2023-04-16T02:26:48.228Z,97.12
2023-04-16T02:29:19.572Z,96.72
2023-04-16T02:31:50.982Z,96.21
2023-04-16T02:34:22.445Z,96.56
2023-04-16T02:36:54.957Z,96.75
2023-04-16T02:39:26.332Z,96.94
2023-04-16T02:41:57.959Z,96.47
2023-04-16T02:44:29.309Z,96.80
2023-04-16T02:47:00.607Z,96.67
2023-04-16T02:49:32.096Z,96.54
2023-04-16T02:52:03.426Z,96.59
2023-04-16T02:54:34.692Z,96.80
2023-04-16T02:57:06.072Z,96.79
2023-04-16T02:59:37.338Z,96.68
2023-04-16T03:02:08.738Z,96.53
2023-04-16T03:04:40.202Z,96.48
2023-04-16T03:07:12.795Z,96.84
2023-04-16T03:09:44.299Z,96.75
2023-04-16T03:12:15.596Z,96.86
2023-04-16T03:14:46.876Z,96.56
2023-04-16T03:17:18.252Z,96.31
2023-04-16T03:19:50.786Z,96.46
2023-04-16T03:22:22.243Z,96.14
2023-04-16T03:24:53.644Z,96.38
2023-04-16T03:27:24.903Z,96.48
2023-04-16T03:29:56.254Z,95.82
2023-04-16T03:32:27.963Z,95.99
2023-04-16T03:34:59.379Z,96.43
2023-04-16T03:37:30.688Z,96.46
2023-04-16T03:40:02.113Z,96.41
2023-04-16T03:42:33.565Z,96.34
2023-04-16T03:45:05.360Z,96.47
2023-04-16T03:47:36.651Z,95.79
2023-04-16T03:50:08.296Z,96.18
2023-04-16T03:52:39.569Z,95.89
2023-04-16T03:55:10.822Z,96.19
2023-04-16T03:57:42.107Z,96.14
2023-04-16T04:00:16.232Z,96.13
2023-04-16T04:02:47.764Z,96.42
2023-04-16T04:05:19.148Z,96.30
2023-04-16T04:07:50.567Z,96.07
2023-04-16T04:10:21.820Z,95.94
2023-04-16T04:12:53.114Z,96.50
2023-04-16T04:15:24.598Z,96.20
2023-04-16T04:17:56.341Z,96.08
2023-04-16T04:20:27.738Z,96.01
2023-04-16T04:22:59.037Z,95.95
2023-04-16T04:25:30.547Z,95.85
2023-04-16T04:28:01.892Z,96.38
2023-04-16T04:30:33.427Z,96.21
2023-04-16T04:33:04.712Z,96.24
2023-04-16T04:35:35.996Z,95.89
2023-04-16T04:38:07.286Z,95.91
2023-04-16T04:40:39.044Z,95.78
2023-04-16T04:43:10.357Z,96.43
2023-04-16T04:45:41.925Z,96.21
2023-04-16T04:48:13.467Z,96.23
2023-04-16T04:50:45.438Z,95.97
2023-04-16T04:53:16.690Z,96.57
2023-04-16T04:55:50.997Z,96.18
2023-04-16T04:58:25.210Z,96.14
2023-04-16T05:00:56.506Z,96.42
2023-04-16T05:03:27.888Z,96.38
2023-04-16T05:05:59.291Z,96.13
2023-04-16T05:08:30.574Z,96.03
2023-04-16T05:11:02.170Z,96.13
2023-04-16T05:13:33.494Z,96.24
2023-04-16T05:16:05.276Z,95.75
2023-04-16T05:18:36.595Z,96.02
2023-04-16T05:21:07.879Z,96.09
2023-04-16T05:23:39.205Z,96.06
2023-04-16T05:26:10.477Z,96.10
2023-04-16T05:28:41.772Z,96.00
2023-04-16T05:31:13.188Z,96.14
2023-04-16T05:33:44.556Z,95.49
2023-04-16T05:36:15.839Z,95.75
2023-04-16T05:38:47.155Z,96.10
2023-04-16T05:41:18.536Z,95.99
2023-04-16T05:43:49.919Z,95.33
2023-04-16T05:46:21.273Z,95.83
2023-04-16T05:48:52.553Z,95.51
2023-04-16T05:51:26.014Z,95.79
2023-04-16T05:53:57.304Z,95.89
2023-04-16T05:56:28.730Z,95.45
2023-04-16T05:59:00.119Z,95.17
2023-04-16T06:01:34.338Z,95.19
2023-04-16T06:04:05.939Z,95.38
2023-04-16T06:06:37.492Z,95.91
2023-04-16T06:09:09.036Z,95.29
2023-04-16T06:11:40.727Z,95.19
2023-04-16T06:14:12.133Z,95.17
2023-04-16T06:16:43.395Z,95.29
2023-04-16T06:19:14.749Z,95.37
2023-04-16T06:21:46.102Z,95.53
2023-04-16T06:24:18.381Z,95.63
2023-04-16T06:26:49.641Z,95.42
2023-04-16T06:29:22.508Z,95.46
2023-04-16T06:31:57.148Z,95.06
2023-04-16T06:34:28.524Z,95.25
2023-04-16T06:36:59.802Z,95.45
2023-04-16T06:39:31.323Z,95.13
2023-04-16T06:42:02.674Z,95.16
2023-04-16T06:44:35.472Z,94.54
2023-04-16T06:47:06.855Z,95.28
2023-04-16T06:49:39.783Z,94.99
2023-04-16T06:52:11.699Z,94.24
2023-04-16T06:54:42.994Z,94.08
2023-04-16T06:57:14.296Z,94.00
2023-04-16T06:59:45.546Z,93.77
2023-04-16T07:02:17.182Z,93.83
2023-04-16T07:04:48.574Z,93.75
2023-04-16T07:07:19.869Z,93.81
2023-04-16T07:09:51.969Z,93.99
2023-04-16T07:12:23.292Z,93.89
2023-04-16T07:14:54.584Z,93.12
2023-04-16T07:17:26.039Z,93.16
2023-04-16T07:19:57.420Z,92.91
2023-04-16T07:22:28.787Z,93.36
2023-04-16T07:25:00.237Z,93.51
2023-04-16T07:27:31.570Z,93.08
2023-04-16T07:30:02.940Z,93.02
2023-04-16T07:32:34.284Z,92.69
2023-04-16T07:35:06.050Z,92.94
2023-04-16T07:37:37.326Z,92.94
2023-04-16T07:40:09.211Z,92.55
2023-04-16T07:42:40.504Z,92.38
2023-04-16T07:45:12.236Z,92.11
2023-04-16T07:47:43.563Z,92.64
2023-04-16T07:50:16.259Z,92.62
2023-04-16T07:52:47.668Z,92.25
2023-04-16T07:55:19.027Z,91.87
2023-04-16T07:57:50.497Z,91.71
2023-04-16T08:00:21.783Z,91.77
2023-04-16T08:02:53.283Z,91.56
2023-04-16T08:05:24.757Z,91.32
2023-04-16T08:07:56.125Z,91.31
2023-04-16T08:10:27.818Z,90.92
2023-04-16T08:13:01.140Z,90.63
2023-04-16T08:15:33.516Z,90.69
2023-04-16T08:18:06.970Z,90.22
2023-04-16T08:20:39.156Z,90.27
2023-04-16T08:23:10.737Z,90.18
2023-04-16T08:25:41.989Z,89.83
2023-04-16T08:28:13.275Z,89.50
2023-04-16T08:30:45.528Z,89.51
2023-04-16T08:33:16.916Z,89.60
2023-04-16T08:35:48.257Z,89.11
2023-04-16T08:38:19.548Z,88.88
2023-04-16T08:40:51.224Z,88.46
2023-04-16T08:43:23.977Z,88.31
2023-04-16T08:45:56.873Z,88.57
2023-04-16T08:48:33.567Z,87.92
2023-04-16T08:51:09.680Z,88.15
2023-04-16T08:53:49.284Z,87.69
2023-04-16T08:56:23.335Z,88.78
2023-04-16T08:58:55.059Z,88.61
2023-04-16T09:01:26.877Z,88.48
2023-04-16T09:03:59.299Z,88.16
2023-04-16T09:06:32.453Z,88.18
2023-04-16T09:09:05.541Z,87.47
2023-04-16T09:11:38.878Z,87.61
2023-04-16T09:14:11.212Z,87.30
2023-04-16T09:16:42.566Z,87.47
2023-04-16T09:19:15.177Z,87.58
2023-04-16T09:21:47.523Z,87.42
2023-04-16T09:24:19.115Z,87.02
2023-04-16T09:26:52.499Z,86.98
2023-04-16T09:29:41.104Z,86.70
2023-04-16T09:32:12.659Z,86.96
2023-04-16T09:35:01.573Z,86.77
2023-04-16T09:37:33.162Z,86.49
2023-04-16T09:40:05.119Z,86.44
2023-04-16T09:42:37.264Z,86.33
2023-04-16T09:45:09.020Z,86.18
2023-04-16T09:47:42.831Z,85.95
2023-04-16T09:50:18.158Z,86.00
2023-04-16T09:52:51.224Z,85.77
2023-04-16T09:55:26.784Z,85.63
2023-04-16T09:58:02.178Z,85.49
2023-04-16T10:00:33.492Z,85.52
2023-04-16T10:03:06.127Z,85.46
2023-04-16T10:05:37.754Z,85.13
2023-04-16T10:08:13.769Z,84.89
2023-04-16T10:10:45.248Z,84.80
2023-04-16T10:13:19.025Z,84.72
2023-04-16T10:15:50.565Z,84.46
2023-04-16T10:18:22.299Z,84.41
2023-04-16T10:20:53.884Z,84.52
2023-04-16T10:23:26.406Z,84.33
2023-04-16T10:25:59.874Z,84.37
2023-04-16T10:28:31.442Z,84.28
2023-04-16T10:31:08.606Z,83.98
2023-04-16T10:33:41.092Z,84.16
2023-04-16T10:36:14.411Z,84.18
2023-04-16T10:38:48.850Z,84.13
2023-04-16T10:41:20.990Z,84.42
2023-04-16T10:43:53.171Z,84.23
2023-04-16T10:46:26.865Z,84.32
2023-04-16T10:49:03.108Z,84.25
2023-04-16T10:51:36.086Z,84.19
2023-04-16T10:54:14.498Z,84.38
2023-04-16T10:56:47.459Z,84.19
2023-04-16T10:59:20.820Z,83.74
2023-04-16T11:01:55.076Z,83.67
2023-04-16T11:04:28.837Z,83.45
2023-04-16T11:07:18.497Z,83.17
2023-04-16T11:10:02.028Z,83.26
2023-04-16T11:12:49.056Z,83.49
2023-04-16T11:15:20.367Z,83.65
2023-04-16T11:17:52.541Z,83.34
2023-04-16T11:20:28.274Z,82.93
2023-04-16T11:22:59.734Z,83.32
2023-04-16T11:25:31.505Z,83.01
2023-04-16T11:28:02.958Z,82.88
2023-04-16T11:30:38.546Z,83.18
2023-04-16T11:33:11.945Z,83.11
2023-04-16T11:35:43.506Z,83.20
2023-04-16T11:38:14.834Z,83.37
2023-04-16T11:40:49.845Z,83.18
2023-04-16T11:43:21.180Z,83.34
2023-04-16T11:46:01.621Z,82.79
2023-04-16T11:48:48.968Z,82.15
2023-04-16T11:51:21.698Z,82.58
2023-04-16T11:53:54.028Z,82.34
2023-04-16T11:56:29.980Z,82.54
2023-04-16T11:59:09.116Z,82.29
2023-04-16T12:01:41.961Z,82.66
2023-04-16T12:04:15.890Z,82.46
2023-04-16T12:07:10.946Z,81.97
2023-04-16T12:09:43.563Z,82.35
2023-04-16T12:12:30.860Z,82.11
2023-04-16T12:15:04.033Z,82.57
2023-04-16T12:17:36.403Z,82.49
2023-04-16T12:20:12.668Z,82.50
2023-04-16T12:22:49.287Z,82.39
2023-04-16T12:25:21.016Z,82.17
2023-04-16T12:27:55.870Z,82.38
2023-04-16T12:30:27.919Z,82.17
2023-04-16T12:33:16.905Z,81.92
2023-04-16T12:35:48.392Z,82.30
2023-04-16T12:38:22.794Z,82.27
2023-04-16T12:40:57.142Z,82.13
2023-04-16T12:43:28.844Z,82.06
2023-04-16T12:46:01.220Z,81.97
2023-04-16T12:48:34.519Z,81.76
2023-04-16T12:51:06.047Z,81.71
2023-04-16T12:53:37.332Z,81.68
2023-04-16T12:56:08.626Z,81.84
2023-04-16T12:58:39.896Z,82.26
2023-04-16T13:01:11.884Z,81.52
2023-04-16T13:03:43.338Z,81.59
2023-04-16T13:06:16.235Z,81.47
2023-04-16T13:08:47.554Z,81.27
2023-04-16T13:11:19.186Z,81.42
2023-04-16T13:13:50.699Z,80.98
2023-04-16T13:16:21.986Z,81.07
2023-04-16T13:18:53.381Z,81.19
2023-04-16T13:21:24.762Z,80.84
2023-04-16T13:23:56.167Z,81.02
2023-04-16T13:26:27.437Z,81.19
2023-04-16T13:28:58.699Z,80.90
2023-04-16T13:31:30.297Z,80.73
2023-04-16T13:34:01.961Z,80.66
2023-04-16T13:36:33.935Z,80.90
2023-04-16T13:39:10.617Z,80.85
2023-04-16T13:41:42.167Z,80.49
2023-04-16T13:44:13.431Z,80.25
2023-04-16T13:46:47.697Z,80.81
2023-04-16T13:49:19.411Z,80.86
2023-04-16T13:51:50.792Z,80.71
2023-04-16T13:54:22.057Z,80.36
2023-04-16T13:56:53.372Z,80.10
2023-04-16T13:59:24.766Z,80.02
2023-04-16T14:01:56.138Z,80.24
2023-04-16T14:04:27.513Z,80.43
2023-04-16T14:06:58.836Z,80.25
2023-04-16T14:09:30.647Z,80.31
2023-04-16T14:12:02.078Z,80.31
2023-04-16T14:14:33.490Z,80.53
2023-04-16T14:17:04.805Z,80.45
2023-04-16T14:19:36.065Z,80.73
2023-04-16T14:22:09.259Z,80.58
2023-04-16T14:24:40.884Z,80.56
2023-04-16T14:27:12.257Z,80.56
2023-04-16T14:29:44.727Z,80.37
2023-04-16T14:32:16.080Z,80.61
2023-04-16T14:34:47.526Z,80.05
2023-04-16T14:37:19.001Z,80.42
2023-04-16T14:39:50.424Z,80.25
2023-04-16T14:42:22.366Z,80.43
2023-04-16T14:44:53.723Z,80.19
2023-04-16T14:47:24.981Z,80.57
2023-04-16T14:49:56.250Z,80.78
2023-04-16T14:52:27.853Z,80.25
2023-04-16T14:54:59.162Z,80.62
2023-04-16T14:57:30.698Z,80.61
2023-04-16T15:00:02.155Z,80.55
2023-04-16T15:02:34.942Z,80.70
2023-04-16T15:05:09.635Z,80.71
2023-04-16T15:07:40.978Z,80.73
2023-04-16T15:10:12.731Z,80.95
2023-04-16T15:12:44.079Z,80.72
2023-04-16T15:15:15.536Z,80.83
2023-04-16T15:17:46.931Z,80.40
2023-04-16T15:20:18.400Z,80.63
2023-04-16T15:22:49.682Z,80.52
2023-04-16T15:25:21.096Z,80.40
2023-04-16T15:27:52.374Z,79.97
2023-04-16T15:30:23.625Z,80.16
2023-04-16T15:32:55.541Z,80.43
2023-04-16T15:35:26.859Z,80.19
2023-04-16T15:37:58.438Z,80.37
2023-04-16T15:40:29.883Z,80.41
2023-04-16T15:43:01.160Z,80.76
2023-04-16T15:45:32.462Z,80.48
2023-04-16T15:48:05.568Z,80.50
2023-04-16T15:50:37.100Z,80.64
2023-04-16T15:53:08.433Z,80.37
2023-04-16T15:55:39.731Z,80.48
2023-04-16T15:58:11.170Z,80.25
2023-04-16T16:00:43.006Z,80.45
2023-04-16T16:03:14.668Z,80.33
2023-04-16T16:05:47.831Z,80.32
2023-04-16T16:08:19.198Z,80.34
2023-04-16T16:10:50.517Z,80.30
2023-04-16T16:13:21.876Z,80.50
2023-04-16T16:15:53.631Z,80.41
2023-04-16T16:18:24.971Z,80.53
2023-04-16T16:20:57.941Z,80.79
2023-04-16T16:23:29.244Z,80.68
2023-04-16T16:26:01.786Z,80.61
2023-04-16T16:28:33.154Z,80.56
2023-04-16T16:31:05.841Z,80.63
2023-04-16T16:33:39.090Z,80.76
2023-04-16T16:36:12.017Z,80.66
2023-04-16T16:38:43.354Z,80.94
2023-04-16T16:41:14.628Z,80.79
2023-04-16T16:43:45.908Z,80.82
2023-04-16T16:46:17.264Z,80.78
2023-04-16T16:48:48.566Z,80.94
2023-04-16T16:51:19.865Z,80.95
2023-04-16T16:53:51.120Z,80.93
2023-04-16T16:56:22.861Z,80.81
2023-04-16T16:58:54.189Z,81.19
2023-04-16T17:01:26.165Z,81.40
2023-04-16T17:03:57.581Z,80.94
2023-04-16T17:06:29.035Z,81.17
2023-04-16T17:09:00.859Z,81.23
2023-04-16T17:11:32.154Z,81.37
2023-04-16T17:14:03.428Z,81.33
2023-04-16T17:16:34.862Z,81.30
2023-04-16T17:19:06.296Z,81.45
2023-04-16T17:21:37.900Z,81.56
2023-04-16T17:24:09.614Z,81.82
2023-04-16T17:26:41.310Z,81.90
2023-04-16T17:29:12.686Z,81.99
2023-04-16T17:31:43.956Z,81.92
2023-04-16T17:34:15.645Z,82.21
2023-04-16T17:36:47.405Z,82.16
2023-04-16T17:39:18.946Z,82.38
2023-04-16T17:41:54.189Z,82.38
2023-04-16T17:44:27.319Z,82.58
2023-04-16T17:46:58.724Z,82.43
2023-04-16T17:49:30.007Z,82.67
2023-04-16T17:52:01.398Z,82.69
2023-04-16T17:54:32.786Z,82.68
2023-04-16T17:57:04.118Z,82.97
2023-04-16T17:59:35.770Z,82.82
2023-04-16T18:02:07.328Z,83.11
2023-04-16T18:04:38.770Z,82.88
2023-04-16T18:07:10.213Z,82.98
2023-04-16T18:09:41.892Z,83.11
2023-04-16T18:12:13.504Z,82.82
2023-04-16T18:14:45.000Z,83.01
2023-04-16T18:17:17.678Z,83.06
2023-04-16T18:19:49.291Z,83.57
2023-04-16T18:22:20.689Z,83.74
2023-04-16T18:24:51.949Z,83.48
2023-04-16T18:27:23.340Z,83.64
2023-04-16T18:29:55.222Z,83.89
2023-04-16T18:32:30.836Z,84.06
2023-04-16T18:35:02.748Z,83.69
2023-04-16T18:37:34.191Z,84.19
2023-04-16T18:40:07.074Z,83.96
2023-04-16T18:42:38.323Z,84.21
2023-04-16T18:45:13.323Z,84.36
2023-04-16T18:47:47.088Z,84.83
2023-04-16T18:50:18.363Z,84.57
2023-04-16T18:52:49.660Z,84.69
2023-04-16T18:55:20.922Z,84.69
2023-04-16T18:57:53.058Z,84.40
2023-04-16T19:00:24.383Z,84.69
2023-04-16T19:02:55.681Z,84.95
2023-04-16T19:05:27.168Z,84.74
2023-04-16T19:07:59.010Z,84.77
2023-04-16T19:10:30.374Z,84.57
2023-04-16T19:13:01.657Z,84.70
2023-04-16T19:15:34.828Z,84.64
2023-04-16T19:18:06.281Z,84.75
2023-04-16T19:20:37.627Z,85.11
2023-04-16T19:23:09.160Z,85.17
2023-04-16T19:25:40.753Z,84.71
2023-04-16T19:28:12.022Z,84.69
2023-04-16T19:30:46.388Z,84.79
2023-04-16T19:33:18.362Z,84.82
2023-04-16T19:35:49.775Z,84.93
2023-04-16T19:38:21.104Z,85.29
2023-04-16T19:40:52.546Z,85.24
2023-04-16T19:43:24.072Z,85.42
2023-04-16T19:45:55.535Z,85.57
2023-04-16T19:48:26.888Z,85.36
2023-04-16T19:51:02.089Z,85.42
2023-04-16T19:53:34.320Z,85.40
2023-04-16T19:56:05.732Z,85.59
2023-04-16T19:58:37.136Z,85.75
2023-04-16T20:01:10.172Z,85.86
2023-04-16T20:03:41.511Z,85.69
2023-04-16T20:06:12.807Z,85.83
2023-04-16T20:08:44.684Z,85.70
2023-04-16T20:11:17.517Z,85.82
2023-04-16T20:13:48.890Z,86.24
2023-04-16T20:16:23.149Z,86.14
2023-04-16T20:18:54.586Z,86.26
2023-04-16T20:21:26.155Z,86.37
2023-04-16T20:23:59.383Z,86.34
2023-04-16T20:26:33.995Z,86.29
2023-04-16T20:29:05.323Z,86.26
2023-04-16T20:31:36.651Z,86.46
2023-04-16T20:34:08.168Z,87.02
2023-04-16T20:36:39.453Z,87.07
2023-04-16T20:39:11.632Z,87.15
2023-04-16T20:41:44.150Z,86.88
2023-04-16T20:44:18.651Z,86.89
2023-04-16T20:46:50.899Z,87.14
2023-04-16T20:49:22.336Z,87.50
2023-04-16T20:51:53.639Z,86.90
2023-04-16T20:54:24.927Z,87.18
2023-04-16T20:56:57.244Z,87.59
2023-04-16T20:59:28.652Z,87.53
2023-04-16T21:02:00.118Z,87.52
2023-04-16T21:04:31.778Z,87.80
2023-04-16T21:07:04.085Z,87.99
2023-04-16T21:09:35.623Z,87.70
2023-04-16T21:12:07.172Z,88.25
2023-04-16T21:14:38.439Z,87.87
2023-04-16T21:17:09.700Z,87.96
2023-04-16T21:19:40.964Z,88.30
2023-04-16T21:22:12.238Z,88.00
2023-04-16T21:24:43.505Z,88.20
2023-04-16T21:27:14.757Z,88.29
2023-04-16T21:29:46.408Z,88.64
2023-04-16T21:32:17.707Z,88.85
2023-04-16T21:34:48.966Z,88.86
2023-04-16T21:37:20.317Z,88.67
2023-04-16T21:39:51.570Z,89.06
2023-04-16T21:42:22.910Z,89.27
2023-04-16T21:44:54.189Z,88.70
2023-04-16T21:47:25.660Z,89.12
2023-04-16T21:49:56.921Z,88.68
2023-04-16T21:52:28.197Z,89.44
2023-04-16T21:55:00.317Z,89.49
2023-04-16T21:57:31.759Z,89.11
2023-04-16T22:00:08.966Z,89.13
2023-04-16T22:02:41.827Z,89.72
2023-04-16T22:05:13.469Z,89.46
2023-04-16T22:07:44.735Z,89.31
2023-04-16T22:10:16.316Z,89.28
2023-04-16T22:12:47.622Z,89.60
2023-04-16T22:15:18.984Z,89.38
2023-04-16T22:17:50.541Z,89.54
2023-04-16T22:20:22.190Z,89.43
2023-04-16T22:22:57.585Z,89.97
2023-04-16T22:25:28.848Z,89.35
2023-04-16T22:28:01.379Z,89.92
2023-04-16T22:30:32.768Z,90.43
2023-04-16T22:33:04.139Z,90.09
2023-04-16T22:35:35.947Z,89.83
2023-04-16T22:38:07.712Z,90.29
2023-04-16T22:40:39.033Z,90.55
2023-04-16T22:43:10.320Z,90.08
2023-04-16T22:45:42.998Z,90.62
2023-04-16T22:48:14.370Z,90.77
2023-04-16T22:50:48.425Z,90.32
2023-04-16T22:53:19.783Z,90.91
2023-04-16T22:55:51.333Z,90.85
2023-04-16T22:58:22.779Z,90.36
2023-04-16T23:00:56.519Z,90.64
2023-04-16T23:03:28.012Z,90.68
2023-04-16T23:05:59.355Z,90.71
2023-04-16T23:08:30.706Z,90.84
2023-04-16T23:11:02.025Z,90.34
2023-04-16T23:13:33.299Z,90.93
2023-04-16T23:16:04.983Z,91.07
2023-04-16T23:18:36.810Z,90.67
2023-04-16T23:21:08.140Z,91.22
2023-04-16T23:23:39.472Z,91.22
2023-04-16T23:26:10.826Z,90.87
2023-04-16T23:28:42.398Z,91.13
2023-04-16T23:31:13.725Z,91.38
2023-04-16T23:33:44.997Z,91.15
2023-04-16T23:36:16.435Z,91.60
2023-04-16T23:38:48.714Z,91.41
2023-04-16T23:41:19.982Z,91.05
2023-04-16T23:43:51.292Z,91.50
2023-04-16T23:46:22.598Z,91.38
2023-04-16T23:48:55.136Z,91.37
2023-04-16T23:51:26.562Z,91.14
2023-04-16T23:53:57.828Z,91.12
2023-04-16T23:56:29.133Z,91.26
2023-04-16T23:59:00.377Z,91.92
